Clark, Texas
Current Conditions -  °F | °C
As of 4:55 PM on Thursday 20 Nov 2014 (Local Time) from K6R3 Reporting Station
Overcast Overcast  
Wind Chill: 67°   Ceiling: 6000
Heat Index: 67°   Visibility: 10mi
Dew Point: 53°   Wind: 5mph
Humidity: 61%   Direction: 170°S
Pressure: 30.1"   Gusts: NA
Location:  30.2945°N, 94.9711°W
Report Text: K6R3 202255Z AUTO 17004KT 10SM SCT048 OVC060 19/12 A3010 RMK AO2 T01920116
Loading
Personal Weather Stations






























Interactive Weather Map New forecast layout! Learn more

10-Day Weather Forecast

Advertisements
Track Severe Weather on mobile